sensor_id;sensor_type;location;lat;lon;timestamp;temperature;humidity
4922;DHT22;16625;53.624;10.106;2023-07-30T00:02:17;16.40;99.90
4922;DHT22;16625;53.624;10.106;2023-07-30T00:04:44;16.00;99.90
4922;DHT22;16625;53.624;10.106;2023-07-30T00:07:11;16.40;99.90
4922;DHT22;16625;53.624;10.106;2023-07-30T00:09:39;15.90;99.90
4922;DHT22;16625;53.624;10.106;2023-07-30T00:12:08;16.00;99.90
4922;DHT22;16625;53.624;10.106;2023-07-30T00:14:36;15.90;99.90
4922;DHT22;16625;53.624;10.106;2023-07-30T00:17:03;16.00;99.90
4922;DHT22;16625;53.624;10.106;2023-07-30T00:19:30;16.00;99.90
4922;DHT22;16625;53.624;10.106;2023-07-30T00:21:57;16.00;99.90
4922;DHT22;16625;53.624;10.106;2023-07-30T00:24:24;16.00;99.90
4922;DHT22;16625;53.624;10.106;2023-07-30T00:26:51;16.00;99.90
4922;DHT22;16625;53.624;10.106;2023-07-30T00:29:20;16.70;99.90
4922;DHT22;16625;53.624;10.106;2023-07-30T00:31:47;16.00;99.90
4922;DHT22;16625;53.624;10.106;2023-07-30T00:34:14;16.70;99.90
4922;DHT22;16625;53.624;10.106;2023-07-30T00:36:41;16.10;99.90
4922;DHT22;16625;53.624;10.106;2023-07-30T00:39:08;16.10;99.90
4922;DHT22;16625;53.624;10.106;2023-07-30T00:41:36;16.40;99.90
4922;DHT22;16625;53.624;10.106;2023-07-30T00:44:04;16.90;99.90
4922;DHT22;16625;53.624;10.106;2023-07-30T00:46:33;16.00;99.90
4922;DHT22;16625;53.624;10.106;2023-07-30T00:49:00;16.00;99.90
4922;DHT22;16625;53.624;10.106;2023-07-30T00:51:28;16.00;99.90
4922;DHT22;16625;53.624;10.106;2023-07-30T00:53:56;16.00;99.90
4922;DHT22;16625;53.624;10.106;2023-07-30T00:56:23;16.00;99.90
4922;DHT22;16625;53.624;10.106;2023-07-30T00:58:50;16.00;99.90
4922;DHT22;16625;53.624;10.106;2023-07-30T01:01:19;16.90;99.90
4922;DHT22;16625;53.624;10.106;2023-07-30T01:03:47;16.60;99.90
4922;DHT22;16625;53.624;10.106;2023-07-30T01:06:15;16.10;99.90
4922;DHT22;16625;53.624;10.106;2023-07-30T01:08:42;16.80;99.90
4922;DHT22;16625;53.624;10.106;2023-07-30T01:11:10;16.00;99.90
4922;DHT22;16625;53.624;10.106;2023-07-30T01:13:38;16.00;99.90
4922;DHT22;16625;53.624;10.106;2023-07-30T01:16:05;15.90;99.90
4922;DHT22;16625;53.624;10.106;2023-07-30T01:18:33;16.20;99.90
4922;DHT22;16625;53.624;10.106;2023-07-30T01:21:01;15.80;99.90
4922;DHT22;16625;53.624;10.106;2023-07-30T01:23:28;15.80;99.90
4922;DHT22;16625;53.624;10.106;2023-07-30T01:26:00;16.50;99.90
4922;DHT22;16625;53.624;10.106;2023-07-30T01:28:36;15.70;99.90
4922;DHT22;16625;53.624;10.106;2023-07-30T01:31:05;16.20;99.90
4922;DHT22;16625;53.624;10.106;2023-07-30T01:33:33;15.60;99.90
4922;DHT22;16625;53.624;10.106;2023-07-30T01:36:02;16.50;99.90
4922;DHT22;16625;53.624;10.106;2023-07-30T01:38:30;15.60;99.90
4922;DHT22;16625;53.624;10.106;2023-07-30T01:40:57;16.70;99.90
4922;DHT22;16625;53.624;10.106;2023-07-30T01:43:24;15.60;99.90
4922;DHT22;16625;53.624;10.106;2023-07-30T01:45:51;15.30;99.90
4922;DHT22;16625;53.624;10.106;2023-07-30T01:48:18;15.50;99.90
4922;DHT22;16625;53.624;10.106;2023-07-30T01:50:45;15.30;99.90
4922;DHT22;16625;53.624;10.106;2023-07-30T01:53:15;15.40;99.90
4922;DHT22;16625;53.624;10.106;2023-07-30T01:55:42;15.80;99.90
4922;DHT22;16625;53.624;10.106;2023-07-30T01:58:12;15.00;99.90
4922;DHT22;16625;53.624;10.106;2023-07-30T02:00:39;15.50;99.90
4922;DHT22;16625;53.624;10.106;2023-07-30T02:03:06;14.90;99.90
4922;DHT22;16625;53.624;10.106;2023-07-30T02:05:33;15.10;99.90
4922;DHT22;16625;53.624;10.106;2023-07-30T02:08:00;14.90;99.90
4922;DHT22;16625;53.624;10.106;2023-07-30T02:10:29;15.20;99.90
4922;DHT22;16625;53.624;10.106;2023-07-30T02:12:56;14.90;99.90
4922;DHT22;16625;53.624;10.106;2023-07-30T02:15:23;14.80;99.90
4922;DHT22;16625;53.624;10.106;2023-07-30T02:17:50;14.80;99.90
4922;DHT22;16625;53.624;10.106;2023-07-30T02:20:17;15.00;99.90
4922;DHT22;16625;53.624;10.106;2023-07-30T02:22:44;14.80;99.90
4922;DHT22;16625;53.624;10.106;2023-07-30T02:25:10;14.80;99.90
4922;DHT22;16625;53.624;10.106;2023-07-30T02:27:39;15.30;99.90
4922;DHT22;16625;53.624;10.106;2023-07-30T02:30:07;14.90;99.90
4922;DHT22;16625;53.624;10.106;2023-07-30T02:32:33;14.70;99.90
4922;DHT22;16625;53.624;10.106;2023-07-30T02:35:00;14.70;99.90
4922;DHT22;16625;53.624;10.106;2023-07-30T02:37:27;14.60;99.90
4922;DHT22;16625;53.624;10.106;2023-07-30T02:39:55;14.70;99.90
4922;DHT22;16625;53.624;10.106;2023-07-30T02:42:21;14.60;99.90
4922;DHT22;16625;53.624;10.106;2023-07-30T02:44:50;14.60;99.90
4922;DHT22;16625;53.624;10.106;2023-07-30T02:47:17;15.30;99.90
4922;DHT22;16625;53.624;10.106;2023-07-30T02:49:44;15.70;99.90
4922;DHT22;16625;53.624;10.106;2023-07-30T02:52:11;15.50;99.90
4922;DHT22;16625;53.624;10.106;2023-07-30T02:54:38;14.40;99.90
4922;DHT22;16625;53.624;10.106;2023-07-30T02:57:05;14.40;99.90
4922;DHT22;16625;53.624;10.106;2023-07-30T02:59:32;14.30;99.90
4922;DHT22;16625;53.624;10.106;2023-07-30T03:02:03;14.80;99.90
4922;DHT22;16625;53.624;10.106;2023-07-30T03:04:30;14.30;99.90
4922;DHT22;16625;53.624;10.106;2023-07-30T03:06:57;15.10;99.90
4922;DHT22;16625;53.624;10.106;2023-07-30T03:09:24;14.30;99.90
4922;DHT22;16625;53.624;10.106;2023-07-30T03:11:51;14.90;99.90
4922;DHT22;16625;53.624;10.106;2023-07-30T03:14:18;14.50;99.90
4922;DHT22;16625;53.624;10.106;2023-07-30T03:16:46;14.70;99.90
4922;DHT22;16625;53.624;10.106;2023-07-30T03:19:14;14.80;99.90
4922;DHT22;16625;53.624;10.106;2023-07-30T03:21:41;15.50;99.90
4922;DHT22;16625;53.624;10.106;2023-07-30T03:24:08;14.40;99.90
4922;DHT22;16625;53.624;10.106;2023-07-30T03:26:35;15.30;99.90
4922;DHT22;16625;53.624;10.106;2023-07-30T03:29:02;15.40;99.90
4922;DHT22;16625;53.624;10.106;2023-07-30T03:31:29;14.70;99.90
4922;DHT22;16625;53.624;10.106;2023-07-30T03:33:57;14.90;99.90
4922;DHT22;16625;53.624;10.106;2023-07-30T03:36:25;15.50;99.90
4922;DHT22;16625;53.624;10.106;2023-07-30T03:38:52;15.20;99.90
4922;DHT22;16625;53.624;10.106;2023-07-30T03:41:19;14.40;99.90
4922;DHT22;16625;53.624;10.106;2023-07-30T03:43:46;14.40;99.90
4922;DHT22;16625;53.624;10.106;2023-07-30T03:46:13;14.60;99.90
4922;DHT22;16625;53.624;10.106;2023-07-30T03:48:40;14.30;99.90
4922;DHT22;16625;53.624;10.106;2023-07-30T03:51:07;15.10;99.90
4922;DHT22;16625;53.624;10.106;2023-07-30T03:53:35;15.40;99.90
4922;DHT22;16625;53.624;10.106;2023-07-30T03:56:02;15.20;99.90
4922;DHT22;16625;53.624;10.106;2023-07-30T03:58:29;14.40;99.90
4922;DHT22;16625;53.624;10.106;2023-07-30T04:00:56;14.40;99.90
4922;DHT22;16625;53.624;10.106;2023-07-30T04:03:23;14.90;99.90
4922;DHT22;16625;53.624;10.106;2023-07-30T04:05:50;15.10;99.90
4922;DHT22;16625;53.624;10.106;2023-07-30T04:08:17;14.50;99.90
4922;DHT22;16625;53.624;10.106;2023-07-30T04:10:45;15.20;99.90
4922;DHT22;16625;53.624;10.106;2023-07-30T04:13:13;14.80;99.90
4922;DHT22;16625;53.624;10.106;2023-07-30T04:15:40;14.90;99.90
4922;DHT22;16625;53.624;10.106;2023-07-30T04:18:07;14.60;99.90
4922;DHT22;16625;53.624;10.106;2023-07-30T04:20:33;14.80;99.90
4922;DHT22;16625;53.624;10.106;2023-07-30T04:23:00;15.70;99.90
4922;DHT22;16625;53.624;10.106;2023-07-30T04:25:27;15.70;99.90
4922;DHT22;16625;53.624;10.106;2023-07-30T04:27:56;15.40;99.90
4922;DHT22;16625;53.624;10.106;2023-07-30T04:30:23;14.70;99.90
4922;DHT22;16625;53.624;10.106;2023-07-30T04:32:50;15.40;99.90
4922;DHT22;16625;53.624;10.106;2023-07-30T04:35:17;15.40;99.90
4922;DHT22;16625;53.624;10.106;2023-07-30T04:37:44;15.70;99.90
4922;DHT22;16625;53.624;10.106;2023-07-30T04:40:11;15.80;99.90
4922;DHT22;16625;53.624;10.106;2023-07-30T04:42:38;14.90;99.90
4922;DHT22;16625;53.624;10.106;2023-07-30T04:45:07;14.90;99.90
4922;DHT22;16625;53.624;10.106;2023-07-30T04:47:34;14.90;99.90
4922;DHT22;16625;53.624;10.106;2023-07-30T04:50:01;15.10;99.90
4922;DHT22;16625;53.624;10.106;2023-07-30T04:52:28;15.10;99.90
4922;DHT22;16625;53.624;10.106;2023-07-30T04:54:54;15.00;99.90
4922;DHT22;16625;53.624;10.106;2023-07-30T04:57:22;16.10;99.90
4922;DHT22;16625;53.624;10.106;2023-07-30T04:59:49;15.60;99.90
4922;DHT22;16625;53.624;10.106;2023-07-30T05:02:17;16.00;99.90
4922;DHT22;16625;53.624;10.106;2023-07-30T05:04:44;15.70;99.90
4922;DHT22;16625;53.624;10.106;2023-07-30T05:07:11;15.20;99.90
4922;DHT22;16625;53.624;10.106;2023-07-30T05:09:38;15.20;99.90
4922;DHT22;16625;53.624;10.106;2023-07-30T05:12:05;15.70;99.90
4922;DHT22;16625;53.624;10.106;2023-07-30T05:14:32;15.40;99.90
4922;DHT22;16625;53.624;10.106;2023-07-30T05:16:59;16.60;99.90
4922;DHT22;16625;53.624;10.106;2023-07-30T05:19:27;15.50;99.90
4922;DHT22;16625;53.624;10.106;2023-07-30T05:21:54;15.60;99.90
4922;DHT22;16625;53.624;10.106;2023-07-30T05:24:21;15.60;99.90
4922;DHT22;16625;53.624;10.106;2023-07-30T05:26:48;15.60;99.90
4922;DHT22;16625;53.624;10.106;2023-07-30T05:29:15;15.60;99.90
4922;DHT22;16625;53.624;10.106;2023-07-30T05:31:42;16.40;99.90
4922;DHT22;16625;53.624;10.106;2023-07-30T05:34:08;15.60;99.90
4922;DHT22;16625;53.624;10.106;2023-07-30T05:36:37;16.10;99.90
4922;DHT22;16625;53.624;10.106;2023-07-30T05:39:04;15.70;99.90
4922;DHT22;16625;53.624;10.106;2023-07-30T05:41:31;15.90;99.90
4922;DHT22;16625;53.624;10.106;2023-07-30T05:43:58;16.10;99.90
4922;DHT22;16625;53.624;10.106;2023-07-30T05:46:24;16.60;99.90
4922;DHT22;16625;53.624;10.106;2023-07-30T05:48:51;16.40;99.90
4922;DHT22;16625;53.624;10.106;2023-07-30T05:51:18;15.90;99.90
4922;DHT22;16625;53.624;10.106;2023-07-30T05:53:46;16.70;99.90
4922;DHT22;16625;53.624;10.106;2023-07-30T05:56:13;16.20;99.90
4922;DHT22;16625;53.624;10.106;2023-07-30T05:58:43;16.40;99.90
4922;DHT22;16625;53.624;10.106;2023-07-30T06:01:10;16.30;99.90
4922;DHT22;16625;53.624;10.106;2023-07-30T06:03:38;16.40;99.90
4922;DHT22;16625;53.624;10.106;2023-07-30T06:06:05;16.40;99.90
4922;DHT22;16625;53.624;10.106;2023-07-30T06:08:32;16.50;99.90
4922;DHT22;16625;53.624;10.106;2023-07-30T06:11:02;16.70;99.90
4922;DHT22;16625;53.624;10.106;2023-07-30T06:13:29;16.50;99.90
4922;DHT22;16625;53.624;10.106;2023-07-30T06:15:56;16.60;99.90
4922;DHT22;16625;53.624;10.106;2023-07-30T06:18:23;16.70;99.90
4922;DHT22;16625;53.624;10.106;2023-07-30T06:20:50;17.20;99.90
4922;DHT22;16625;53.624;10.106;2023-07-30T06:23:17;17.30;99.90
4922;DHT22;16625;53.624;10.106;2023-07-30T06:25:45;17.30;99.90
4922;DHT22;16625;53.624;10.106;2023-07-30T06:28:13;17.40;99.90
4922;DHT22;16625;53.624;10.106;2023-07-30T06:30:40;17.60;99.90
4922;DHT22;16625;53.624;10.106;2023-07-30T06:33:07;17.80;99.90
4922;DHT22;16625;53.624;10.106;2023-07-30T06:35:34;18.00;99.90
4922;DHT22;16625;53.624;10.106;2023-07-30T06:38:01;18.20;99.90
4922;DHT22;16625;53.624;10.106;2023-07-30T06:40:28;18.60;99.90
4922;DHT22;16625;53.624;10.106;2023-07-30T06:43:01;18.20;99.90
4922;DHT22;16625;53.624;10.106;2023-07-30T06:45:29;18.40;99.90
4922;DHT22;16625;53.624;10.106;2023-07-30T06:47:56;18.40;99.90
4922;DHT22;16625;53.624;10.106;2023-07-30T06:50:23;18.50;99.90
4922;DHT22;16625;53.624;10.106;2023-07-30T06:52:50;18.50;99.90
4922;DHT22;16625;53.624;10.106;2023-07-30T06:55:19;18.70;99.90
4922;DHT22;16625;53.624;10.106;2023-07-30T06:57:46;18.70;99.90
4922;DHT22;16625;53.624;10.106;2023-07-30T07:00:15;18.70;99.90
4922;DHT22;16625;53.624;10.106;2023-07-30T07:02:48;18.80;99.90
4922;DHT22;16625;53.624;10.106;2023-07-30T07:05:15;18.90;99.90
4922;DHT22;16625;53.624;10.106;2023-07-30T07:07:48;18.90;99.90
4922;DHT22;16625;53.624;10.106;2023-07-30T07:10:17;19.10;99.90
4922;DHT22;16625;53.624;10.106;2023-07-30T07:12:47;19.30;99.90
4922;DHT22;16625;53.624;10.106;2023-07-30T07:15:21;19.10;99.90
4922;DHT22;16625;53.624;10.106;2023-07-30T07:17:49;19.30;99.90
4922;DHT22;16625;53.624;10.106;2023-07-30T07:20:17;19.40;99.90
4922;DHT22;16625;53.624;10.106;2023-07-30T07:22:44;19.50;99.90
4922;DHT22;16625;53.624;10.106;2023-07-30T07:25:19;19.60;60.50
4922;DHT22;16625;53.624;10.106;2023-07-30T07:27:48;19.10;92.80
4922;DHT22;16625;53.624;10.106;2023-07-30T07:30:15;19.60;8.50
4922;DHT22;16625;53.624;10.106;2023-07-30T07:32:42;19.80;1.00
4922;DHT22;16625;53.624;10.106;2023-07-30T07:35:13;20.10;1.00
4922;DHT22;16625;53.624;10.106;2023-07-30T07:37:40;19.90;99.90
4922;DHT22;16625;53.624;10.106;2023-07-30T07:40:08;19.70;99.90
4922;DHT22;16625;53.624;10.106;2023-07-30T07:42:35;19.90;99.90
4922;DHT22;16625;53.624;10.106;2023-07-30T07:45:03;20.00;99.90
4922;DHT22;16625;53.624;10.106;2023-07-30T07:47:30;20.10;1.00
4922;DHT22;16625;53.624;10.106;2023-07-30T07:49:56;20.10;99.90
4922;DHT22;16625;53.624;10.106;2023-07-30T07:52:26;20.10;99.90
4922;DHT22;16625;53.624;10.106;2023-07-30T07:54:53;20.10;99.90
4922;DHT22;16625;53.624;10.106;2023-07-30T07:57:20;20.30;99.90
4922;DHT22;16625;53.624;10.106;2023-07-30T07:59:47;20.40;1.00
4922;DHT22;16625;53.624;10.106;2023-07-30T08:02:22;20.50;99.90
4922;DHT22;16625;53.624;10.106;2023-07-30T08:04:50;20.80;1.00
4922;DHT22;16625;53.624;10.106;2023-07-30T08:07:17;20.90;1.00
4922;DHT22;16625;53.624;10.106;2023-07-30T08:09:47;20.80;3.30
4922;DHT22;16625;53.624;10.106;2023-07-30T08:12:14;21.00;1.00
4922;DHT22;16625;53.624;10.106;2023-07-30T08:14:41;20.90;99.90
4922;DHT22;16625;53.624;10.106;2023-07-30T08:17:08;21.10;1.00
4922;DHT22;16625;53.624;10.106;2023-07-30T08:19:38;20.90;42.60
4922;DHT22;16625;53.624;10.106;2023-07-30T08:22:05;21.10;1.00
4922;DHT22;16625;53.624;10.106;2023-07-30T08:24:32;21.20;99.90
4922;DHT22;16625;53.624;10.106;2023-07-30T08:27:01;21.10;99.90
4922;DHT22;16625;53.624;10.106;2023-07-30T08:29:28;21.10;1.00
4922;DHT22;16625;53.624;10.106;2023-07-30T08:31:55;21.10;99.90
4922;DHT22;16625;53.624;10.106;2023-07-30T08:34:22;21.20;99.90
4922;DHT22;16625;53.624;10.106;2023-07-30T08:36:49;21.40;99.90
4922;DHT22;16625;53.624;10.106;2023-07-30T08:39:16;21.30;43.40
4922;DHT22;16625;53.624;10.106;2023-07-30T08:41:45;21.50;1.00
4922;DHT22;16625;53.624;10.106;2023-07-30T08:44:13;21.60;1.00
4922;DHT22;16625;53.624;10.106;2023-07-30T08:46:40;21.60;99.90
4922;DHT22;16625;53.624;10.106;2023-07-30T08:49:10;21.60;1.00
4922;DHT22;16625;53.624;10.106;2023-07-30T08:51:38;21.60;1.00
4922;DHT22;16625;53.624;10.106;2023-07-30T08:54:09;21.50;99.90
4922;DHT22;16625;53.624;10.106;2023-07-30T08:56:36;21.50;99.90
4922;DHT22;16625;53.624;10.106;2023-07-30T08:59:04;21.80;1.00
4922;DHT22;16625;53.624;10.106;2023-07-30T09:01:37;22.20;99.90
4922;DHT22;16625;53.624;10.106;2023-07-30T09:04:05;22.50;99.90
4922;DHT22;16625;53.624;10.106;2023-07-30T09:06:34;22.60;99.90
4922;DHT22;16625;53.624;10.106;2023-07-30T09:09:04;22.40;91.00
4922;DHT22;16625;53.624;10.106;2023-07-30T09:11:31;22.50;1.00
4922;DHT22;16625;53.624;10.106;2023-07-30T09:14:02;22.40;99.90
4922;DHT22;16625;53.624;10.106;2023-07-30T09:16:29;22.50;1.00
4922;DHT22;16625;53.624;10.106;2023-07-30T09:18:57;22.70;99.90
4922;DHT22;16625;53.624;10.106;2023-07-30T09:21:31;22.50;99.90
4922;DHT22;16625;53.624;10.106;2023-07-30T09:24:01;22.30;99.90
4922;DHT22;16625;53.624;10.106;2023-07-30T09:26:40;22.20;99.90
4922;DHT22;16625;53.624;10.106;2023-07-30T09:29:08;22.10;99.90
4922;DHT22;16625;53.624;10.106;2023-07-30T09:31:50;21.90;99.90
4922;DHT22;16625;53.624;10.106;2023-07-30T09:34:24;22.20;99.90
4922;DHT22;16625;53.624;10.106;2023-07-30T09:36:54;22.20;99.90
4922;DHT22;16625;53.624;10.106;2023-07-30T09:39:22;22.20;1.00
4922;DHT22;16625;53.624;10.106;2023-07-30T09:41:50;21.90;1.00
4922;DHT22;16625;53.624;10.106;2023-07-30T09:44:23;22.00;1.00
4922;DHT22;16625;53.624;10.106;2023-07-30T09:46:51;22.30;1.00
4922;DHT22;16625;53.624;10.106;2023-07-30T09:49:18;22.50;1.00
4922;DHT22;16625;53.624;10.106;2023-07-30T09:51:47;22.60;99.90
4922;DHT22;16625;53.624;10.106;2023-07-30T09:54:15;22.60;99.90
4922;DHT22;16625;53.624;10.106;2023-07-30T09:56:45;22.40;99.90
4922;DHT22;16625;53.624;10.106;2023-07-30T09:59:14;22.20;99.90
4922;DHT22;16625;53.624;10.106;2023-07-30T10:01:43;22.00;99.90
4922;DHT22;16625;53.624;10.106;2023-07-30T10:04:18;21.90;99.90
4922;DHT22;16625;53.624;10.106;2023-07-30T10:06:52;21.70;99.90
4922;DHT22;16625;53.624;10.106;2023-07-30T10:09:21;21.70;99.90
4922;DHT22;16625;53.624;10.106;2023-07-30T10:11:52;22.00;99.90
4922;DHT22;16625;53.624;10.106;2023-07-30T10:14:22;22.20;99.90
4922;DHT22;16625;53.624;10.106;2023-07-30T10:16:50;21.90;1.00
4922;DHT22;16625;53.624;10.106;2023-07-30T10:19:20;22.00;3.90
4922;DHT22;16625;53.624;10.106;2023-07-30T10:21:50;22.10;99.90
4922;DHT22;16625;53.624;10.106;2023-07-30T10:24:17;22.30;1.00
4922;DHT22;16625;53.624;10.106;2023-07-30T10:26:44;22.30;1.00
4922;DHT22;16625;53.624;10.106;2023-07-30T10:29:15;22.20;1.00
4922;DHT22;16625;53.624;10.106;2023-07-30T10:31:52;22.10;1.00
4922;DHT22;16625;53.624;10.106;2023-07-30T10:34:20;22.10;1.00
4922;DHT22;16625;53.624;10.106;2023-07-30T10:36:48;22.00;99.90
4922;DHT22;16625;53.624;10.106;2023-07-30T10:39:18;22.00;99.90
4922;DHT22;16625;53.624;10.106;2023-07-30T10:41:45;22.00;99.90
4922;DHT22;16625;53.624;10.106;2023-07-30T10:44:23;22.20;99.90
4922;DHT22;16625;53.624;10.106;2023-07-30T10:46:51;22.30;99.90
4922;DHT22;16625;53.624;10.106;2023-07-30T10:49:18;22.40;99.90
4922;DHT22;16625;53.624;10.106;2023-07-30T10:51:45;22.50;99.90
4922;DHT22;16625;53.624;10.106;2023-07-30T10:54:12;22.70;99.90
4922;DHT22;16625;53.624;10.106;2023-07-30T10:56:44;22.60;99.90
4922;DHT22;16625;53.624;10.106;2023-07-30T10:59:12;22.70;99.90
4922;DHT22;16625;53.624;10.106;2023-07-30T11:01:41;22.60;99.90
4922;DHT22;16625;53.624;10.106;2023-07-30T11:04:17;22.40;99.90
4922;DHT22;16625;53.624;10.106;2023-07-30T11:06:48;22.60;99.90
4922;DHT22;16625;53.624;10.106;2023-07-30T11:09:22;22.50;83.00
4922;DHT22;16625;53.624;10.106;2023-07-30T11:11:53;22.60;99.90
4922;DHT22;16625;53.624;10.106;2023-07-30T11:14:21;22.60;53.20
4922;DHT22;16625;53.624;10.106;2023-07-30T11:16:52;22.60;1.00
4922;DHT22;16625;53.624;10.106;2023-07-30T11:19:20;22.70;1.00
4922;DHT22;16625;53.624;10.106;2023-07-30T11:21:48;22.90;1.00
4922;DHT22;16625;53.624;10.106;2023-07-30T11:24:16;23.30;1.00
4922;DHT22;16625;53.624;10.106;2023-07-30T11:26:43;23.80;1.00
4922;DHT22;16625;53.624;10.106;2023-07-30T11:29:21;24.00;1.00
4922;DHT22;16625;53.624;10.106;2023-07-30T11:31:47;23.90;1.00
4922;DHT22;16625;53.624;10.106;2023-07-30T11:34:15;23.60;1.00
4922;DHT22;16625;53.624;10.106;2023-07-30T11:36:45;23.70;1.00
4922;DHT22;16625;53.624;10.106;2023-07-30T11:39:14;23.80;1.00
4922;DHT22;16625;53.624;10.106;2023-07-30T11:41:41;23.60;1.00
4922;DHT22;16625;53.624;10.106;2023-07-30T11:44:08;23.60;1.00
4922;DHT22;16625;53.624;10.106;2023-07-30T11:46:36;23.70;1.00
4922;DHT22;16625;53.624;10.106;2023-07-30T11:49:11;23.80;1.00
4922;DHT22;16625;53.624;10.106;2023-07-30T11:51:39;24.00;1.00
4922;DHT22;16625;53.624;10.106;2023-07-30T11:54:07;24.00;1.00
4922;DHT22;16625;53.624;10.106;2023-07-30T11:56:35;23.90;1.00
4922;DHT22;16625;53.624;10.106;2023-07-30T11:59:05;23.70;1.00
4922;DHT22;16625;53.624;10.106;2023-07-30T12:01:34;23.90;1.00
4922;DHT22;16625;53.624;10.106;2023-07-30T12:04:04;23.90;1.00
4922;DHT22;16625;53.624;10.106;2023-07-30T12:06:39;24.00;1.00
4922;DHT22;16625;53.624;10.106;2023-07-30T12:09:12;24.40;1.00
4922;DHT22;16625;53.624;10.106;2023-07-30T12:11:52;24.50;1.00
4922;DHT22;16625;53.624;10.106;2023-07-30T12:14:24;24.20;1.00
4922;DHT22;16625;53.624;10.106;2023-07-30T12:16:55;24.10;1.00
4922;DHT22;16625;53.624;10.106;2023-07-30T12:19:24;24.10;1.00
4922;DHT22;16625;53.624;10.106;2023-07-30T12:21:51;24.20;1.00
4922;DHT22;16625;53.624;10.106;2023-07-30T12:24:22;24.60;1.00
4922;DHT22;16625;53.624;10.106;2023-07-30T12:26:50;24.70;1.00
4922;DHT22;16625;53.624;10.106;2023-07-30T12:29:17;24.50;99.90
4922;DHT22;16625;53.624;10.106;2023-07-30T12:31:44;24.40;99.90
4922;DHT22;16625;53.624;10.106;2023-07-30T12:34:12;24.20;99.90
4922;DHT22;16625;53.624;10.106;2023-07-30T12:36:42;23.80;99.90
4922;DHT22;16625;53.624;10.106;2023-07-30T12:39:09;24.20;99.90
4922;DHT22;16625;53.624;10.106;2023-07-30T12:41:36;24.00;99.90
4922;DHT22;16625;53.624;10.106;2023-07-30T12:44:04;24.30;99.90
4922;DHT22;16625;53.624;10.106;2023-07-30T12:46:31;24.20;99.90
4922;DHT22;16625;53.624;10.106;2023-07-30T12:48:58;24.20;99.90
4922;DHT22;16625;53.624;10.106;2023-07-30T12:51:28;24.00;99.90
4922;DHT22;16625;53.624;10.106;2023-07-30T12:53:57;23.70;99.90
4922;DHT22;16625;53.624;10.106;2023-07-30T12:56:24;23.50;99.90
4922;DHT22;16625;53.624;10.106;2023-07-30T12:58:51;23.50;99.90
4922;DHT22;16625;53.624;10.106;2023-07-30T13:01:20;23.40;99.90
4922;DHT22;16625;53.624;10.106;2023-07-30T13:03:49;23.40;99.90
4922;DHT22;16625;53.624;10.106;2023-07-30T13:06:17;23.30;99.90
4922;DHT22;16625;53.624;10.106;2023-07-30T13:08:47;23.10;99.90
4922;DHT22;16625;53.624;10.106;2023-07-30T13:11:20;22.80;99.90
4922;DHT22;16625;53.624;10.106;2023-07-30T13:13:47;22.30;99.90
4922;DHT22;16625;53.624;10.106;2023-07-30T13:16:14;22.00;99.90
4922;DHT22;16625;53.624;10.106;2023-07-30T13:18:41;21.80;99.90
4922;DHT22;16625;53.624;10.106;2023-07-30T13:21:08;21.50;99.90
4922;DHT22;16625;53.624;10.106;2023-07-30T13:23:35;21.20;99.90
4922;DHT22;16625;53.624;10.106;2023-07-30T13:26:02;20.50;99.90
4922;DHT22;16625;53.624;10.106;2023-07-30T13:28:30;19.10;99.90
4922;DHT22;16625;53.624;10.106;2023-07-30T13:30:57;17.80;1.00
4922;DHT22;16625;53.624;10.106;2023-07-30T13:33:24;17.10;1.00
4922;DHT22;16625;53.624;10.106;2023-07-30T13:35:53;16.70;1.00
4922;DHT22;16625;53.624;10.106;2023-07-30T13:38:20;16.20;99.90
4922;DHT22;16625;53.624;10.106;2023-07-30T13:41:02;16.60;1.00
4922;DHT22;16625;53.624;10.106;2023-07-30T13:43:31;15.80;71.10
4922;DHT22;16625;53.624;10.106;2023-07-30T13:45:58;15.30;99.90
4922;DHT22;16625;53.624;10.106;2023-07-30T13:48:25;15.80;25.60
4922;DHT22;16625;53.624;10.106;2023-07-30T13:50:53;15.90;99.90
4922;DHT22;16625;53.624;10.106;2023-07-30T13:53:20;15.80;99.90
4922;DHT22;16625;53.624;10.106;2023-07-30T13:55:47;15.90;99.90
4922;DHT22;16625;53.624;10.106;2023-07-30T13:58:14;16.50;99.90
4922;DHT22;16625;53.624;10.106;2023-07-30T14:00:44;16.50;99.90
4922;DHT22;16625;53.624;10.106;2023-07-30T14:03:15;16.20;99.90
4922;DHT22;16625;53.624;10.106;2023-07-30T14:05:42;16.30;99.90
4922;DHT22;16625;53.624;10.106;2023-07-30T14:08:12;16.60;99.90
4922;DHT22;16625;53.624;10.106;2023-07-30T14:10:44;16.80;29.10
4922;DHT22;16625;53.624;10.106;2023-07-30T14:13:25;17.40;1.00
4922;DHT22;16625;53.624;10.106;2023-07-30T14:16:00;16.90;1.00
4922;DHT22;16625;53.624;10.106;2023-07-30T14:18:38;17.60;90.60
4922;DHT22;16625;53.624;10.106;2023-07-30T14:21:06;18.00;1.00
4922;DHT22;16625;53.624;10.106;2023-07-30T14:23:38;18.50;1.00
4922;DHT22;16625;53.624;10.106;2023-07-30T14:26:13;19.20;70.50
4922;DHT22;16625;53.624;10.106;2023-07-30T14:28:44;19.60;99.90
4922;DHT22;16625;53.624;10.106;2023-07-30T14:31:34;19.80;1.00
4922;DHT22;16625;53.624;10.106;2023-07-30T14:34:15;20.00;99.90
4922;DHT22;16625;53.624;10.106;2023-07-30T14:36:44;20.30;99.90
4922;DHT22;16625;53.624;10.106;2023-07-30T14:39:11;19.80;1.00
4922;DHT22;16625;53.624;10.106;2023-07-30T14:41:38;20.10;17.20
4922;DHT22;16625;53.624;10.106;2023-07-30T14:44:05;20.00;99.90
4922;DHT22;16625;53.624;10.106;2023-07-30T14:46:37;20.10;79.20
4922;DHT22;16625;53.624;10.106;2023-07-30T14:49:06;20.30;99.90
4922;DHT22;16625;53.624;10.106;2023-07-30T14:51:42;19.80;1.00
4922;DHT22;16625;53.624;10.106;2023-07-30T14:54:09;19.80;34.40
4922;DHT22;16625;53.624;10.106;2023-07-30T14:56:39;19.70;1.00
4922;DHT22;16625;53.624;10.106;2023-07-30T14:59:06;19.70;99.90
4922;DHT22;16625;53.624;10.106;2023-07-30T15:01:39;19.70;99.90
4922;DHT22;16625;53.624;10.106;2023-07-30T15:04:14;20.20;99.90
4922;DHT22;16625;53.624;10.106;2023-07-30T15:06:41;19.80;99.90
4922;DHT22;16625;53.624;10.106;2023-07-30T15:09:11;19.50;56.70
4922;DHT22;16625;53.624;10.106;2023-07-30T15:11:38;19.60;1.00
4922;DHT22;16625;53.624;10.106;2023-07-30T15:14:05;19.70;1.00
4922;DHT22;16625;53.624;10.106;2023-07-30T15:16:32;19.80;1.00
4922;DHT22;16625;53.624;10.106;2023-07-30T15:19:08;20.20;1.00
4922;DHT22;16625;53.624;10.106;2023-07-30T15:21:42;20.20;1.00
4922;DHT22;16625;53.624;10.106;2023-07-30T15:24:09;20.40;1.00
4922;DHT22;16625;53.624;10.106;2023-07-30T15:26:41;20.40;99.90
4922;DHT22;16625;53.624;10.106;2023-07-30T15:29:08;20.30;99.90
4922;DHT22;16625;53.624;10.106;2023-07-30T15:31:35;20.20;99.90
4922;DHT22;16625;53.624;10.106;2023-07-30T15:34:03;19.90;99.90
4922;DHT22;16625;53.624;10.106;2023-07-30T15:36:31;19.80;99.90
4922;DHT22;16625;53.624;10.106;2023-07-30T15:39:08;19.80;1.00
4922;DHT22;16625;53.624;10.106;2023-07-30T15:41:36;19.70;1.00
4922;DHT22;16625;53.624;10.106;2023-07-30T15:44:03;19.50;1.00